sensor_id;sensor_type;location;lat;lon;timestamp;pressure;altitude;pressure_sealevel;temperature
34310;BMP280;61664;48.112;11.662;2022-11-13T00:01:22;96505.97;;;8.98
34310;BMP280;61664;48.112;11.662;2022-11-13T00:03:49;96508.97;;;9.00
34310;BMP280;61664;48.112;11.662;2022-11-13T00:06:18;96502.47;;;9.01
34310;BMP280;61664;48.112;11.662;2022-11-13T00:08:46;96503.25;;;9.01
34310;BMP280;61664;48.112;11.662;2022-11-13T00:11:17;96488.50;;;8.97
34310;BMP280;61664;48.112;11.662;2022-11-13T00:13:45;96497.16;;;9.01
34310;BMP280;61664;48.112;11.662;2022-11-13T00:16:17;96498.31;;;9.00
34310;BMP280;61664;48.112;11.662;2022-11-13T00:18:45;96491.44;;;9.02
34310;BMP280;61664;48.112;11.662;2022-11-13T00:21:18;96478.16;;;8.99
34310;BMP280;61664;48.112;11.662;2022-11-13T00:23:46;96485.97;;;9.06
34310;BMP280;61664;48.112;11.662;2022-11-13T00:28:42;96478.41;;;9.04
34310;BMP280;61664;48.112;11.662;2022-11-13T00:31:12;96483.72;;;9.04
34310;BMP280;61664;48.112;11.662;2022-11-13T00:33:40;96471.00;;;8.96
34310;BMP280;61664;48.112;11.662;2022-11-13T00:36:27;96471.31;;;8.98
34310;BMP280;61664;48.112;11.662;2022-11-13T00:38:55;96471.31;;;8.98
34310;BMP280;61664;48.112;11.662;2022-11-13T00:41:23;96478.41;;;9.04
34310;BMP280;61664;48.112;11.662;2022-11-13T00:43:50;96467.91;;;8.97
34310;BMP280;61664;48.112;11.662;2022-11-13T00:46:18;96481.94;;;9.01
34310;BMP280;61664;48.112;11.662;2022-11-13T00:48:45;96475.50;;;8.99
34310;BMP280;61664;48.112;11.662;2022-11-13T00:51:12;96454.84;;;8.86
34310;BMP280;61664;48.112;11.662;2022-11-13T00:53:39;96452.28;;;8.83
34310;BMP280;61664;48.112;11.662;2022-11-13T00:56:06;96452.28;;;8.83
34310;BMP280;61664;48.112;11.662;2022-11-13T00:58:33;96454.69;;;8.77
34310;BMP280;61664;48.112;11.662;2022-11-13T01:01:11;96454.03;;;8.73
34310;BMP280;61664;48.112;11.662;2022-11-13T01:03:39;96439.06;;;8.63
34310;BMP280;61664;48.112;11.662;2022-11-13T01:06:20;96443.69;;;8.59
34310;BMP280;61664;48.112;11.662;2022-11-13T01:08:48;96445.38;;;8.53
34310;BMP280;61664;48.112;11.662;2022-11-13T01:11:19;96443.13;;;8.51
34310;BMP280;61664;48.112;11.662;2022-11-13T01:13:47;96433.34;;;8.45
34310;BMP280;61664;48.112;11.662;2022-11-13T01:16:17;96429.81;;;8.51
34310;BMP280;61664;48.112;11.662;2022-11-13T01:18:44;96428.69;;;8.49
34310;BMP280;61664;48.112;11.662;2022-11-13T01:21:19;96422.63;;;8.48
34310;BMP280;61664;48.112;11.662;2022-11-13T01:23:46;96424.06;;;8.53
34310;BMP280;61664;48.112;11.662;2022-11-13T01:26:21;96420.22;;;8.54
34310;BMP280;61664;48.112;11.662;2022-11-13T01:28:49;96426.19;;;8.58
34310;BMP280;61664;48.112;11.662;2022-11-13T01:31:20;96414.38;;;8.59
34310;BMP280;61664;48.112;11.662;2022-11-13T01:33:49;96418.97;;;8.59
34310;BMP280;61664;48.112;11.662;2022-11-13T01:36:20;96403.06;;;8.55
34310;BMP280;61664;48.112;11.662;2022-11-13T01:38:48;96402.66;;;8.56
34310;BMP280;61664;48.112;11.662;2022-11-13T01:41:20;96398.06;;;8.57
34310;BMP280;61664;48.112;11.662;2022-11-13T01:43:52;96399.97;;;8.56
34310;BMP280;61664;48.112;11.662;2022-11-13T01:46:32;96390.91;;;8.54
34310;BMP280;61664;48.112;11.662;2022-11-13T01:54:11;96381.50;;;8.49
34310;BMP280;61664;48.112;11.662;2022-11-13T01:56:40;96385.91;;;8.56
34310;BMP280;61664;48.112;11.662;2022-11-13T01:59:18;96391.25;;;8.56
34310;BMP280;61664;48.112;11.662;2022-11-13T02:01:45;96392.72;;;8.57
34310;BMP280;61664;48.112;11.662;2022-11-13T02:04:12;96385.56;;;8.54
34310;BMP280;61664;48.112;11.662;2022-11-13T02:06:44;96378.50;;;8.47
34310;BMP280;61664;48.112;11.662;2022-11-13T02:09:15;96378.78;;;8.53
34310;BMP280;61664;48.112;11.662;2022-11-13T02:11:43;96366.78;;;8.45
34310;BMP280;61664;48.112;11.662;2022-11-13T02:14:12;96370.03;;;8.52
34310;BMP280;61664;48.112;11.662;2022-11-13T02:16:43;96367.03;;;8.50
34310;BMP280;61664;48.112;11.662;2022-11-13T02:19:23;96363.97;;;8.52
34310;BMP280;61664;48.112;11.662;2022-11-13T02:21:58;96361.59;;;8.54
34310;BMP280;61664;48.112;11.662;2022-11-13T02:24:40;96354.13;;;8.49
34310;BMP280;61664;48.112;11.662;2022-11-13T02:27:31;96353.19;;;8.55
34310;BMP280;61664;48.112;11.662;2022-11-13T02:32:51;96337.63;;;8.54
34310;BMP280;61664;48.112;11.662;2022-11-13T02:35:30;96334.97;;;8.54
34310;BMP280;61664;48.112;11.662;2022-11-13T02:38:02;96337.53;;;8.57
34310;BMP280;61664;48.112;11.662;2022-11-13T02:40:32;96332.31;;;8.54
34310;BMP280;61664;48.112;11.662;2022-11-13T02:42:59;96329.50;;;8.61
34310;BMP280;61664;48.112;11.662;2022-11-13T02:45:25;96334.47;;;8.59
34310;BMP280;61664;48.112;11.662;2022-11-13T02:47:52;96331.38;;;8.61
34310;BMP280;61664;48.112;11.662;2022-11-13T02:50:19;96318.31;;;8.50
34310;BMP280;61664;48.112;11.662;2022-11-13T02:52:46;96319.06;;;8.50
34310;BMP280;61664;48.112;11.662;2022-11-13T02:55:13;96323.66;;;8.50
34310;BMP280;61664;48.112;11.662;2022-11-13T02:57:40;96309.59;;;8.49
34310;BMP280;61664;48.112;11.662;2022-11-13T03:00:08;96319.00;;;8.54
34310;BMP280;61664;48.112;11.662;2022-11-13T03:02:40;96293.59;;;8.49
34310;BMP280;61664;48.112;11.662;2022-11-13T03:05:07;96294.44;;;8.46
34310;BMP280;61664;48.112;11.662;2022-11-13T03:07:40;96298.53;;;8.51
34310;BMP280;61664;48.112;11.662;2022-11-13T03:10:09;96300.94;;;8.45
34310;BMP280;61664;48.112;11.662;2022-11-13T03:12:38;96292.03;;;8.36
34310;BMP280;61664;48.112;11.662;2022-11-13T03:15:07;96293.06;;;8.26
34310;BMP280;61664;48.112;11.662;2022-11-13T03:17:35;96301.53;;;8.20
34310;BMP280;61664;48.112;11.662;2022-11-13T03:20:03;96303.22;;;8.14
34310;BMP280;61664;48.112;11.662;2022-11-13T03:22:30;96289.81;;;8.02
34310;BMP280;61664;48.112;11.662;2022-11-13T03:24:57;96303.63;;;7.97
34310;BMP280;61664;48.112;11.662;2022-11-13T03:27:24;96295.97;;;7.82
34310;BMP280;61664;48.112;11.662;2022-11-13T03:29:51;96294.53;;;7.78
34310;BMP280;61664;48.112;11.662;2022-11-13T03:32:18;96291.13;;;7.77
34310;BMP280;61664;48.112;11.662;2022-11-13T03:34:44;96293.31;;;7.82
34310;BMP280;61664;48.112;11.662;2022-11-13T03:37:11;96269.09;;;7.77
34310;BMP280;61664;48.112;11.662;2022-11-13T03:39:38;96265.94;;;7.82
34310;BMP280;61664;48.112;11.662;2022-11-13T03:42:05;96265.88;;;7.85
34310;BMP280;61664;48.112;11.662;2022-11-13T03:44:32;96258.63;;;7.86
34310;BMP280;61664;48.112;11.662;2022-11-13T03:46:59;96243.16;;;7.81
34310;BMP280;61664;48.112;11.662;2022-11-13T03:49:26;96251.97;;;7.94
34310;BMP280;61664;48.112;11.662;2022-11-13T03:51:53;96247.41;;;7.95
34310;BMP280;61664;48.112;11.662;2022-11-13T03:54:19;96238.00;;;7.90
34310;BMP280;61664;48.112;11.662;2022-11-13T03:56:46;96213.91;;;7.81
34310;BMP280;61664;48.112;11.662;2022-11-13T03:59:13;96232.69;;;7.90
34310;BMP280;61664;48.112;11.662;2022-11-13T04:01:40;96243.56;;;7.96
34310;BMP280;61664;48.112;11.662;2022-11-13T04:04:07;96248.91;;;7.96
34310;BMP280;61664;48.112;11.662;2022-11-13T04:06:35;96242.50;;;7.93
34310;BMP280;61664;48.112;11.662;2022-11-13T04:09:02;96221.88;;;7.81
34310;BMP280;61664;48.112;11.662;2022-11-13T04:11:29;96236.00;;;7.94
34310;BMP280;61664;48.112;11.662;2022-11-13T04:13:56;96237.19;;;7.93
34310;BMP280;61664;48.112;11.662;2022-11-13T04:16:22;96243.66;;;7.92
34310;BMP280;61664;48.112;11.662;2022-11-13T04:18:49;96243.34;;;7.90
34310;BMP280;61664;48.112;11.662;2022-11-13T04:21:16;96239.19;;;7.89
34310;BMP280;61664;48.112;11.662;2022-11-13T04:23:43;96242.34;;;7.84
34310;BMP280;61664;48.112;11.662;2022-11-13T04:26:10;96238.09;;;7.86
34310;BMP280;61664;48.112;11.662;2022-11-13T04:28:37;96235.44;;;7.86
34310;BMP280;61664;48.112;11.662;2022-11-13T04:31:04;96231.34;;;7.82
34310;BMP280;61664;48.112;11.662;2022-11-13T04:33:30;96240.00;;;7.86
34310;BMP280;61664;48.112;11.662;2022-11-13T04:35:57;96223.38;;;7.82
34310;BMP280;61664;48.112;11.662;2022-11-13T04:38:24;96221.22;;;7.77
34310;BMP280;61664;48.112;11.662;2022-11-13T04:40:51;96221.47;;;7.82
34310;BMP280;61664;48.112;11.662;2022-11-13T04:43:38;96221.47;;;7.82
34310;BMP280;61664;48.112;11.662;2022-11-13T04:46:05;96225.28;;;7.81
34310;BMP280;61664;48.112;11.662;2022-11-13T04:48:32;96208.41;;;7.72
34310;BMP280;61664;48.112;11.662;2022-11-13T04:50:59;96207.06;;;7.80
34310;BMP280;61664;48.112;11.662;2022-11-13T04:53:26;96200.75;;;7.74
34310;BMP280;61664;48.112;11.662;2022-11-13T04:55:53;96212.81;;;7.78
34310;BMP280;61664;48.112;11.662;2022-11-13T04:58:20;96209.81;;;7.76
34310;BMP280;61664;48.112;11.662;2022-11-13T05:00:47;96196.78;;;7.66
34310;BMP280;61664;48.112;11.662;2022-11-13T05:03:14;96197.59;;;7.63
34310;BMP280;61664;48.112;11.662;2022-11-13T05:05:40;96196.13;;;7.62
34310;BMP280;61664;48.112;11.662;2022-11-13T05:08:07;96207.41;;;7.66
34310;BMP280;61664;48.112;11.662;2022-11-13T05:10:35;96193.44;;;7.62
34310;BMP280;61664;48.112;11.662;2022-11-13T05:13:01;96208.06;;;7.70
34310;BMP280;61664;48.112;11.662;2022-11-13T05:15:28;96191.88;;;7.64
34310;BMP280;61664;48.112;11.662;2022-11-13T05:17:56;96193.44;;;7.62
34310;BMP280;61664;48.112;11.662;2022-11-13T05:20:23;96185.06;;;7.63
34310;BMP280;61664;48.112;11.662;2022-11-13T05:22:50;96175.34;;;7.56
34310;BMP280;61664;48.112;11.662;2022-11-13T05:25:17;96194.13;;;7.66
34310;BMP280;61664;48.112;11.662;2022-11-13T05:27:43;96174.84;;;7.62
34310;BMP280;61664;48.112;11.662;2022-11-13T05:30:10;96171.81;;;7.59
34310;BMP280;61664;48.112;11.662;2022-11-13T05:32:37;96178.56;;;7.64
34310;BMP280;61664;48.112;11.662;2022-11-13T05:35:04;96166.50;;;7.59
34310;BMP280;61664;48.112;11.662;2022-11-13T05:37:31;96176.66;;;7.65
34310;BMP280;61664;48.112;11.662;2022-11-13T05:39:58;96163.50;;;7.57
34310;BMP280;61664;48.112;11.662;2022-11-13T05:42:25;96172.84;;;7.66
34310;BMP280;61664;48.112;11.662;2022-11-13T05:44:52;96167.53;;;7.66
34310;BMP280;61664;48.112;11.662;2022-11-13T05:47:18;96156.28;;;7.58
34310;BMP280;61664;48.112;11.662;2022-11-13T05:49:45;96153.19;;;7.59
34310;BMP280;61664;48.112;11.662;2022-11-13T05:52:12;96161.53;;;7.62
34310;BMP280;61664;48.112;11.662;2022-11-13T05:54:39;96146.59;;;7.51
34310;BMP280;61664;48.112;11.662;2022-11-13T05:57:06;96130.97;;;7.53
34310;BMP280;61664;48.112;11.662;2022-11-13T05:59:33;96137.59;;;7.62
34310;BMP280;61664;48.112;11.662;2022-11-13T06:01:59;96141.34;;;7.64
34310;BMP280;61664;48.112;11.662;2022-11-13T06:04:26;96143.25;;;7.64
34310;BMP280;61664;48.112;11.662;2022-11-13T06:06:53;96124.38;;;7.58
34310;BMP280;61664;48.112;11.662;2022-11-13T06:09:20;96142.50;;;7.63
34310;BMP280;61664;48.112;11.662;2022-11-13T06:11:47;96142.50;;;7.63
34310;BMP280;61664;48.112;11.662;2022-11-13T06:14:14;96137.59;;;7.62
34310;BMP280;61664;48.112;11.662;2022-11-13T06:16:41;96138.34;;;7.62
34310;BMP280;61664;48.112;11.662;2022-11-13T06:19:09;96127.72;;;7.62
34310;BMP280;61664;48.112;11.662;2022-11-13T06:21:39;96127.34;;;7.60
34310;BMP280;61664;48.112;11.662;2022-11-13T06:24:11;96125.09;;;7.58
34310;BMP280;61664;48.112;11.662;2022-11-13T06:26:38;96117.06;;;7.46
34310;BMP280;61664;48.112;11.662;2022-11-13T06:29:08;96118.13;;;7.48
34310;BMP280;61664;48.112;11.662;2022-11-13T06:31:36;96106.53;;;7.42
34310;BMP280;61664;48.112;11.662;2022-11-13T06:34:04;96116.34;;;7.45
34310;BMP280;61664;48.112;11.662;2022-11-13T06:36:34;96105.09;;;7.38
34310;BMP280;61664;48.112;11.662;2022-11-13T06:39:06;96114.97;;;7.37
34310;BMP280;61664;48.112;11.662;2022-11-13T06:41:33;96101.84;;;7.30
34310;BMP280;61664;48.112;11.662;2022-11-13T06:44:01;96110.09;;;7.36
34310;BMP280;61664;48.112;11.662;2022-11-13T06:46:29;96103.03;;;7.29
34310;BMP280;61664;48.112;11.662;2022-11-13T06:48:57;96094.25;;;7.32
34310;BMP280;61664;48.112;11.662;2022-11-13T06:51:27;96093.38;;;7.35
34310;BMP280;61664;48.112;11.662;2022-11-13T06:53:55;96057.59;;;7.23
34310;BMP280;61664;48.112;11.662;2022-11-13T06:56:23;96057.09;;;7.28
34310;BMP280;61664;48.112;11.662;2022-11-13T06:58:50;96055.16;;;7.29
34310;BMP280;61664;48.112;11.662;2022-11-13T07:01:22;96062.50;;;7.41
34310;BMP280;61664;48.112;11.662;2022-11-13T07:03:50;96065.50;;;7.43
34310;BMP280;61664;48.112;11.662;2022-11-13T07:06:22;96086.97;;;7.49
34310;BMP280;61664;48.112;11.662;2022-11-13T07:08:50;96072.94;;;7.48
34310;BMP280;61664;48.112;11.662;2022-11-13T07:11:21;96053.56;;;7.48
34310;BMP280;61664;48.112;11.662;2022-11-13T07:13:49;96059.31;;;7.46
34310;BMP280;61664;48.112;11.662;2022-11-13T07:16:16;96066.81;;;7.51
34310;BMP280;61664;48.112;11.662;2022-11-13T07:18:52;96063.63;;;7.56
34310;BMP280;61664;48.112;11.662;2022-11-13T07:21:21;96047.19;;;7.62
34310;BMP280;61664;48.112;11.662;2022-11-13T07:23:49;96039.84;;;7.66
34310;BMP280;61664;48.112;11.662;2022-11-13T07:26:17;96046.97;;;7.69
34310;BMP280;61664;48.112;11.662;2022-11-13T07:28:44;96060.44;;;7.78
34310;BMP280;61664;48.112;11.662;2022-11-13T07:31:13;96052.25;;;7.85
34310;BMP280;61664;48.112;11.662;2022-11-13T07:33:40;96046.28;;;7.81
34310;BMP280;61664;48.112;11.662;2022-11-13T07:36:09;96062.31;;;7.94
34310;BMP280;61664;48.112;11.662;2022-11-13T07:38:36;96060.91;;;7.89
34310;BMP280;61664;48.112;11.662;2022-11-13T07:43:30;96090.97;;;8.02
34310;BMP280;61664;48.112;11.662;2022-11-13T07:45:58;96087.66;;;7.98
34310;BMP280;61664;48.112;11.662;2022-11-13T07:48:25;96096.06;;;7.97
34310;BMP280;61664;48.112;11.662;2022-11-13T07:50:59;96095.63;;;7.98
34310;BMP280;61664;48.112;11.662;2022-11-13T07:53:28;96096.94;;;8.06
34310;BMP280;61664;48.112;11.662;2022-11-13T07:55:55;96088.31;;;8.02
34310;BMP280;61664;48.112;11.662;2022-11-13T07:58:21;96100.75;;;8.05
34310;BMP280;61664;48.112;11.662;2022-11-13T08:00:48;96106.66;;;8.13
34310;BMP280;61664;48.112;11.662;2022-11-13T08:03:17;96099.31;;;8.17
34310;BMP280;61664;48.112;11.662;2022-11-13T08:05:44;96098.19;;;8.31
34310;BMP280;61664;48.112;11.662;2022-11-13T08:08:13;96088.81;;;8.39
34310;BMP280;61664;48.112;11.662;2022-11-13T08:10:41;96061.44;;;8.38
34310;BMP280;61664;48.112;11.662;2022-11-13T08:13:09;96077.66;;;8.56
34310;BMP280;61664;48.112;11.662;2022-11-13T08:15:36;96058.84;;;8.64
34310;BMP280;61664;48.112;11.662;2022-11-13T08:18:04;96060.31;;;8.77
34310;BMP280;61664;48.112;11.662;2022-11-13T08:20:32;96059.81;;;8.82
34310;BMP280;61664;48.112;11.662;2022-11-13T08:23:02;96050.94;;;8.85
34310;BMP280;61664;48.112;11.662;2022-11-13T08:25:30;96058.69;;;9.05
34310;BMP280;61664;48.112;11.662;2022-11-13T08:27:58;96072.00;;;9.18
34310;BMP280;61664;48.112;11.662;2022-11-13T08:30:27;96078.41;;;9.20
34310;BMP280;61664;48.112;11.662;2022-11-13T08:32:54;96074.50;;;9.12
34310;BMP280;61664;48.112;11.662;2022-11-13T08:35:22;96051.97;;;9.01
34310;BMP280;61664;48.112;11.662;2022-11-13T08:38:01;96070.09;;;9.06
34310;BMP280;61664;48.112;11.662;2022-11-13T08:40:29;96072.34;;;9.07
34310;BMP280;61664;48.112;11.662;2022-11-13T08:43:01;96069.25;;;9.09
34310;BMP280;61664;48.112;11.662;2022-11-13T08:45:29;96055.25;;;9.17
34310;BMP280;61664;48.112;11.662;2022-11-13T08:48:01;96058.53;;;9.34
34310;BMP280;61664;48.112;11.662;2022-11-13T08:50:30;96057.75;;;9.46
34310;BMP280;61664;48.112;11.662;2022-11-13T08:52:59;96047.91;;;9.56
34310;BMP280;61664;48.112;11.662;2022-11-13T08:55:27;96033.84;;;9.56
34310;BMP280;61664;48.112;11.662;2022-11-13T08:58:01;96046.66;;;9.70
34310;BMP280;61664;48.112;11.662;2022-11-13T09:00:30;96054.66;;;9.82
34310;BMP280;61664;48.112;11.662;2022-11-13T09:02:59;96042.22;;;9.88
34310;BMP280;61664;48.112;11.662;2022-11-13T09:05:27;96045.38;;;9.96
34310;BMP280;61664;48.112;11.662;2022-11-13T09:07:59;96033.22;;;9.95
34310;BMP280;61664;48.112;11.662;2022-11-13T09:10:27;96043.94;;;10.04
34310;BMP280;61664;48.112;11.662;2022-11-13T09:12:56;96054.06;;;10.09
34310;BMP280;61664;48.112;11.662;2022-11-13T09:15:24;96052.88;;;10.10
34310;BMP280;61664;48.112;11.662;2022-11-13T09:17:56;96048.53;;;10.26
34310;BMP280;61664;48.112;11.662;2022-11-13T09:20:25;96053.31;;;10.40
34310;BMP280;61664;48.112;11.662;2022-11-13T09:23:03;96035.06;;;10.38
34310;BMP280;61664;48.112;11.662;2022-11-13T09:25:33;96042.44;;;10.56
34310;BMP280;61664;48.112;11.662;2022-11-13T09:28:04;96048.59;;;10.75
34310;BMP280;61664;48.112;11.662;2022-11-13T09:30:32;96041.63;;;10.86
34310;BMP280;61664;48.112;11.662;2022-11-13T09:33:00;96021.28;;;10.89
34310;BMP280;61664;48.112;11.662;2022-11-13T09:35:28;96024.59;;;10.93
34310;BMP280;61664;48.112;11.662;2022-11-13T09:38:09;96029.50;;;11.04
34310;BMP280;61664;48.112;11.662;2022-11-13T09:40:48;96027.69;;;11.10
34310;BMP280;61664;48.112;11.662;2022-11-13T09:43:34;96027.72;;;11.19
34310;BMP280;61664;48.112;11.662;2022-11-13T09:48:49;96022.97;;;11.69
34310;BMP280;61664;48.112;11.662;2022-11-13T09:51:31;96000.59;;;11.90
34310;BMP280;61664;48.112;11.662;2022-11-13T09:54:05;96000.94;;;11.92
34310;BMP280;61664;48.112;11.662;2022-11-13T09:56:42;96006.75;;;11.72
34310;BMP280;61664;48.112;11.662;2022-11-13T09:59:26;95991.00;;;11.65
34310;BMP280;61664;48.112;11.662;2022-11-13T10:04:58;95993.81;;;12.22
34310;BMP280;61664;48.112;11.662;2022-11-13T10:12:43;95993.31;;;12.42
34310;BMP280;61664;48.112;11.662;2022-11-13T10:15:15;95980.44;;;12.22
34310;BMP280;61664;48.112;11.662;2022-11-13T10:20:56;95972.72;;;11.64
34310;BMP280;61664;48.112;11.662;2022-11-13T10:23:30;95966.34;;;11.52
34310;BMP280;61664;48.112;11.662;2022-11-13T10:26:13;95972.13;;;11.50
34310;BMP280;61664;48.112;11.662;2022-11-13T10:28:41;95964.44;;;11.25
34310;BMP280;61664;48.112;11.662;2022-11-13T10:31:17;95961.91;;;11.03
34310;BMP280;61664;48.112;11.662;2022-11-13T10:33:43;95956.25;;;10.92
34310;BMP280;61664;48.112;11.662;2022-11-13T10:39:21;95958.03;;;11.13
34310;BMP280;61664;48.112;11.662;2022-11-13T10:41:52;95943.03;;;11.25
34310;BMP280;61664;48.112;11.662;2022-11-13T10:44:27;95936.78;;;11.37
34310;BMP280;61664;48.112;11.662;2022-11-13T10:47:30;95940.00;;;11.60
34310;BMP280;61664;48.112;11.662;2022-11-13T10:50:23;95929.47;;;11.98
34310;BMP280;61664;48.112;11.662;2022-11-13T10:52:54;95927.94;;;12.39
34310;BMP280;61664;48.112;11.662;2022-11-13T10:58:10;95917.25;;;13.16
34310;BMP280;61664;48.112;11.662;2022-11-13T11:00:39;95906.06;;;13.47
34310;BMP280;61664;48.112;11.662;2022-11-13T11:03:18;95894.06;;;13.78
34310;BMP280;61664;48.112;11.662;2022-11-13T11:06:11;95894.69;;;14.02
34310;BMP280;61664;48.112;11.662;2022-11-13T11:08:38;95895.97;;;14.27
34310;BMP280;61664;48.112;11.662;2022-11-13T11:11:17;95886.75;;;14.54
34310;BMP280;61664;48.112;11.662;2022-11-13T11:14:37;95879.19;;;14.78
34310;BMP280;61664;48.112;11.662;2022-11-13T11:17:06;95878.31;;;14.87
34310;BMP280;61664;48.112;11.662;2022-11-13T11:19:37;95883.28;;;14.94
34310;BMP280;61664;48.112;11.662;2022-11-13T11:22:15;95866.84;;;15.18
34310;BMP280;61664;48.112;11.662;2022-11-13T11:24:58;95868.38;;;15.56
34310;BMP280;61664;48.112;11.662;2022-11-13T11:27:43;95868.34;;;15.93
34310;BMP280;61664;48.112;11.662;2022-11-13T11:30:22;95869.41;;;16.12
34310;BMP280;61664;48.112;11.662;2022-11-13T11:33:14;95862.63;;;16.22
34310;BMP280;61664;48.112;11.662;2022-11-13T11:35:59;95855.19;;;16.17
34310;BMP280;61664;48.112;11.662;2022-11-13T11:47:42;95838.53;;;14.96
34310;BMP280;61664;48.112;11.662;2022-11-13T11:50:14;95829.50;;;14.74
34310;BMP280;61664;48.112;11.662;2022-11-13T11:53:13;95833.72;;;14.54
34310;BMP280;61664;48.112;11.662;2022-11-13T12:01:55;95826.31;;;14.03
34310;BMP280;61664;48.112;11.662;2022-11-13T12:07:54;95818.88;;;13.78
34310;BMP280;61664;48.112;11.662;2022-11-13T12:10:58;95821.28;;;13.76
34310;BMP280;61664;48.112;11.662;2022-11-13T12:16:39;95810.56;;;13.96
34310;BMP280;61664;48.112;11.662;2022-11-13T12:19:44;95824.53;;;14.00
34310;BMP280;61664;48.112;11.662;2022-11-13T12:22:23;95826.97;;;13.98
34310;BMP280;61664;48.112;11.662;2022-11-13T12:25:20;95815.19;;;13.95
34310;BMP280;61664;48.112;11.662;2022-11-13T12:30:57;95782.84;;;13.84
34310;BMP280;61664;48.112;11.662;2022-11-13T12:35:57;95765.13;;;13.72
34310;BMP280;61664;48.112;11.662;2022-11-13T12:38:35;95776.19;;;13.80
34310;BMP280;61664;48.112;11.662;2022-11-13T12:41:30;95764.22;;;13.81
34310;BMP280;61664;48.112;11.662;2022-11-13T12:44:24;95753.50;;;13.81
34310;BMP280;61664;48.112;11.662;2022-11-13T12:46:53;95764.03;;;13.84
34310;BMP280;61664;48.112;11.662;2022-11-13T12:49:29;95763.56;;;13.86
34310;BMP280;61664;48.112;11.662;2022-11-13T12:52:20;95779.63;;;14.01
34310;BMP280;61664;48.112;11.662;2022-11-13T12:54:49;95782.75;;;14.19
34310;BMP280;61664;48.112;11.662;2022-11-13T12:57:23;95775.34;;;14.35
34310;BMP280;61664;48.112;11.662;2022-11-13T13:00:09;95767.63;;;14.48
34310;BMP280;61664;48.112;11.662;2022-11-13T13:02:55;95757.00;;;14.59
34310;BMP280;61664;48.112;11.662;2022-11-13T13:16:01;95719.63;;;14.61
34310;BMP280;61664;48.112;11.662;2022-11-13T13:18:35;95718.28;;;14.71
34310;BMP280;61664;48.112;11.662;2022-11-13T13:21:07;95722.94;;;14.76
34310;BMP280;61664;48.112;11.662;2022-11-13T13:23:44;95722.25;;;14.81
34310;BMP280;61664;48.112;11.662;2022-11-13T13:26:25;95736.34;;;15.02
34310;BMP280;61664;48.112;11.662;2022-11-13T13:28:55;95742.91;;;15.38
34310;BMP280;61664;48.112;11.662;2022-11-13T13:31:45;95734.97;;;15.60
34310;BMP280;61664;48.112;11.662;2022-11-13T13:43:10;95685.13;;;16.04
34310;BMP280;61664;48.112;11.662;2022-11-13T13:48:29;95687.31;;;16.00
34310;BMP280;61664;48.112;11.662;2022-11-13T13:50:58;95682.91;;;15.91
34310;BMP280;61664;48.112;11.662;2022-11-13T13:53:31;95675.28;;;15.84
34310;BMP280;61664;48.112;11.662;2022-11-13T13:56:02;95668.19;;;15.81
34310;BMP280;61664;48.112;11.662;2022-11-13T13:58:34;95670.13;;;15.81
34310;BMP280;61664;48.112;11.662;2022-11-13T14:01:05;95668.88;;;15.76
34310;BMP280;61664;48.112;11.662;2022-11-13T14:03:48;95670.84;;;15.75
34310;BMP280;61664;48.112;11.662;2022-11-13T14:06:21;95682.91;;;15.91
34310;BMP280;61664;48.112;11.662;2022-11-13T14:08:49;95672.59;;;15.90
34310;BMP280;61664;48.112;11.662;2022-11-13T14:11:26;95677.78;;;16.04
34310;BMP280;61664;48.112;11.662;2022-11-13T14:14:10;95674.84;;;16.14
34310;BMP280;61664;48.112;11.662;2022-11-13T14:16:53;95667.25;;;16.23
34310;BMP280;61664;48.112;11.662;2022-11-13T14:19:21;95643.72;;;16.13
34310;BMP280;61664;48.112;11.662;2022-11-13T14:22:01;95664.06;;;16.19
34310;BMP280;61664;48.112;11.662;2022-11-13T14:24:50;95663.09;;;16.05
34310;BMP280;61664;48.112;11.662;2022-11-13T14:27:23;95659.63;;;15.94
34310;BMP280;61664;48.112;11.662;2022-11-13T14:30:02;95660.56;;;15.85
34310;BMP280;61664;48.112;11.662;2022-11-13T14:32:33;95655.16;;;15.74
34310;BMP280;61664;48.112;11.662;2022-11-13T14:35:24;95645.81;;;15.58
34310;BMP280;61664;48.112;11.662;2022-11-13T14:37:53;95649.22;;;15.53
34310;BMP280;61664;48.112;11.662;2022-11-13T14:40:28;95650.66;;;15.43
34310;BMP280;61664;48.112;11.662;2022-11-13T14:43:04;95649.63;;;15.35
34310;BMP280;61664;48.112;11.662;2022-11-13T14:45:33;95661.34;;;15.26
34310;BMP280;61664;48.112;11.662;2022-11-13T14:48:25;95653.47;;;15.12
34310;BMP280;61664;48.112;11.662;2022-11-13T14:53:37;95644.84;;;15.02
34310;BMP280;61664;48.112;11.662;2022-11-13T14:56:08;95643.09;;;14.93
34310;BMP280;61664;48.112;11.662;2022-11-13T14:58:44;95626.88;;;14.82
34310;BMP280;61664;48.112;11.662;2022-11-13T15:01:24;95634.41;;;14.78
34310;BMP280;61664;48.112;11.662;2022-11-13T15:03:51;95627.81;;;14.74
34310;BMP280;61664;48.112;11.662;2022-11-13T15:06:25;95624.06;;;14.65
34310;BMP280;61664;48.112;11.662;2022-11-13T15:08:56;95619.63;;;14.57
34310;BMP280;61664;48.112;11.662;2022-11-13T15:11:26;95622.72;;;14.50
34310;BMP280;61664;48.112;11.662;2022-11-13T15:13:52;95629.09;;;14.47
34310;BMP280;61664;48.112;11.662;2022-11-13T15:16:27;95632.47;;;14.42
34310;BMP280;61664;48.112;11.662;2022-11-13T15:19:05;95624.00;;;14.23
34310;BMP280;61664;48.112;11.662;2022-11-13T15:21:35;95631.00;;;14.15
34310;BMP280;61664;48.112;11.662;2022-11-13T15:24:02;95623.44;;;14.13
34310;BMP280;61664;48.112;11.662;2022-11-13T15:26:28;95625.06;;;14.05
34310;BMP280;61664;48.112;11.662;2022-11-13T15:28:55;95624.47;;;13.95
34310;BMP280;61664;48.112;11.662;2022-11-13T15:31:33;95633.97;;;13.91
34310;BMP280;61664;48.112;11.662;2022-11-13T15:34:01;95630.88;;;13.78
34310;BMP280;61664;48.112;11.662;2022-11-13T15:36:28;95611.72;;;13.65
34310;BMP280;61664;48.112;11.662;2022-11-13T15:38:55;95629.97;;;13.60
34310;BMP280;61664;48.112;11.662;2022-11-13T15:41:25;95625.50;;;13.52
34310;BMP280;61664;48.112;11.662;2022-11-13T15:43:53;95618.19;;;13.32
34310;BMP280;61664;48.112;11.662;2022-11-13T15:46:23;95625.69;;;13.28
34310;BMP280;61664;48.112;11.662;2022-11-13T15:48:50;95615.22;;;13.10
34310;BMP280;61664;48.112;11.662;2022-11-13T15:51:43;95618.56;;;13.05
34310;BMP280;61664;48.112;11.662;2022-11-13T15:54:24;95630.16;;;12.96